Time;durP1;ratioP1;P1;durP2;ratioP2;P2;SDS_P1;SDS_P2;PMS_P1;PMS_P2;Temp;Humidity;BMP_temperature;BMP_pressure;BME280_temperature;BME280_humidity;BME280_pressure;Samples;Min_cycle;Max_cycle;Signal;HPM_P1;HPM_P2
2023/10/12 00:00:24;;;;;;;4.32;1.77;;;26.60;99.90;;;;;;5134296;27;20255;-76
2023/10/12 00:02:57;;;;;;;2.97;1.58;;;26.80;99.90;;;;;;5134634;27;20663;-73
2023/10/12 00:05:29;;;;;;;3.67;1.77;;;26.90;99.90;;;;;;5133869;27;20195;-73
2023/10/12 00:08:07;;;;;;;7.60;2.70;;;26.90;99.90;;;;;;5127254;27;20211;-75
2023/10/12 00:10:44;;;;;;;5.72;2.58;;;26.90;99.90;;;;;;5125478;27;20277;-80
2023/10/12 00:13:20;;;;;;;7.55;2.55;;;27.20;99.90;;;;;;5129337;27;20222;-81
2023/10/12 00:15:55;;;;;;;4.82;2.10;;;27.30;99.90;;;;;;5126139;27;20197;-80
2023/10/12 00:18:26;;;;;;;6.53;1.70;;;27.50;99.90;;;;;;5126243;27;20291;-81
2023/10/12 00:20:56;;;;;;;4.57;1.67;;;27.60;99.90;;;;;;5122807;27;20550;-74
2023/10/12 00:23:27;;;;;;;3.40;1.60;;;27.80;99.90;;;;;;5132747;27;20209;-76
2023/10/12 00:25:58;;;;;;;2.20;1.30;;;28.00;99.90;;;;;;5122001;27;20184;-79
2023/10/12 00:28:38;;;;;;;3.63;1.50;;;28.20;99.90;;;;;;5124577;27;20258;-77
2023/10/12 00:31:17;;;;;;;2.17;1.40;;;28.40;99.90;;;;;;5124369;27;20573;-74
2023/10/12 00:33:51;;;;;;;2.10;1.35;;;28.60;99.90;;;;;;5117522;27;20762;-74
2023/10/12 00:36:22;;;;;;;1.42;1.02;;;28.80;99.90;;;;;;5133737;27;20199;-74
2023/10/12 00:38:53;;;;;;;2.65;1.33;;;28.90;99.90;;;;;;5131816;27;20199;-74
2023/10/12 00:41:25;;;;;;;10.95;2.60;;;29.00;99.90;;;;;;5122752;27;20211;-76
2023/10/12 00:44:07;;;;;;;4.47;1.50;;;29.20;99.90;;;;;;5124271;27;20199;-75
2023/10/12 00:46:52;;;;;;;3.33;1.30;;;29.40;99.90;;;;;;5132527;27;20199;-74
2023/10/12 00:49:26;;;;;;;2.20;1.48;;;29.50;99.90;;;;;;5123768;27;20722;-74
2023/10/12 00:52:13;;;;;;;3.53;1.30;;;29.70;99.90;;;;;;5123111;27;20195;-74
2023/10/12 00:54:49;;;;;;;3.45;1.92;;;29.80;99.90;;;;;;5130527;27;20611;-75
2023/10/12 00:57:20;;;;;;;2.25;1.60;;;29.90;99.90;;;;;;5133725;27;20194;-77
2023/10/12 00:59:52;;;;;;;1.40;0.98;;;30.00;99.90;;;;;;5128815;27;20210;-75
2023/10/12 01:02:31;;;;;;;1.70;1.10;;;30.20;99.90;;;;;;5124176;27;20194;-74
2023/10/12 01:05:04;;;;;;;2.67;1.00;;;30.40;99.90;;;;;;5128183;27;20242;-74
2023/10/12 01:07:36;;;;;;;3.30;0.90;;;30.60;99.90;;;;;;5121203;27;20622;-73
2023/10/12 01:10:10;;;;;;;1.00;0.90;;;30.80;99.90;;;;;;5131831;27;20686;-74
2023/10/12 01:12:41;;;;;;;1.77;0.90;;;31.00;99.90;;;;;;5125385;27;20215;-73
2023/10/12 01:15:12;;;;;;;2.20;0.95;;;31.10;99.90;;;;;;5126148;27;20668;-73
2023/10/12 01:17:51;;;;;;;1.45;1.00;;;31.30;99.90;;;;;;5126882;27;20206;-72
2023/10/12 01:20:26;;;;;;;1.90;1.02;;;31.40;99.90;;;;;;5126607;27;20658;-72
2023/10/12 01:22:59;;;;;;;2.45;1.15;;;31.40;99.90;;;;;;5131235;27;20205;-72
2023/10/12 01:25:33;;;;;;;2.80;0.93;;;31.50;99.80;;;;;;5132111;27;20285;-72
2023/10/12 01:28:12;;;;;;;1.27;1.17;;;31.50;99.90;;;;;;5121466;27;20222;-78
2023/10/12 01:30:44;;;;;;;1.05;0.82;;;31.50;99.70;;;;;;5126190;27;20197;-77
2023/10/12 01:33:15;;;;;;;2.35;1.02;;;31.60;99.30;;;;;;5125352;27;20222;-77
2023/10/12 01:35:49;;;;;;;2.13;1.15;;;31.70;98.60;;;;;;5129419;28;20187;-81
2023/10/12 01:38:23;;;;;;;1.42;0.90;;;31.80;98.40;;;;;;5118290;28;20186;-75
2023/10/12 01:40:55;;;;;;;1.40;0.98;;;31.90;98.50;;;;;;5125099;28;20194;-78
2023/10/12 01:43:28;;;;;;;1.00;0.90;;;32.00;98.40;;;;;;5120668;27;20195;-72
2023/10/12 01:46:06;;;;;;;2.85;1.13;;;32.10;97.20;;;;;;5124754;27;20553;-77
2023/10/12 01:48:37;;;;;;;3.28;1.08;;;32.20;97.10;;;;;;5128214;27;20191;-79
2023/10/12 01:51:14;;;;;;;2.92;1.00;;;32.30;96.50;;;;;;5130062;27;20638;-79
2023/10/12 01:53:49;;;;;;;2.08;1.10;;;32.10;96.20;;;;;;5121212;27;20210;-78
2023/10/12 01:56:20;;;;;;;3.83;1.00;;;32.20;95.20;;;;;;5134077;27;20195;-75
2023/10/12 01:58:51;;;;;;;1.10;1.00;;;32.30;95.60;;;;;;5128753;27;20202;-79
2023/10/12 02:01:24;;;;;;;0.93;0.90;;;32.30;94.00;;;;;;5135751;27;20206;-78
2023/10/12 02:03:56;;;;;;;2.45;1.40;;;32.30;94.20;;;;;;5122592;27;20195;-73
2023/10/12 02:06:28;;;;;;;1.13;0.95;;;32.40;94.20;;;;;;5136502;27;20248;-78
2023/10/12 02:09:08;;;;;;;1.10;0.95;;;32.50;94.80;;;;;;5134176;27;20190;-76
2023/10/12 02:11:43;;;;;;;2.15;1.08;;;32.50;94.70;;;;;;5129805;27;20225;-77
2023/10/12 02:14:23;;;;;;;3.10;1.15;;;32.50;94.50;;;;;;5129225;27;20218;-74
2023/10/12 02:16:56;;;;;;;1.40;1.13;;;32.60;94.60;;;;;;5130519;27;20191;-74
2023/10/12 02:19:38;;;;;;;4.32;1.90;;;32.50;92.60;;;;;;5127854;27;20663;-73
2023/10/12 02:22:18;;;;;;;1.45;1.02;;;32.50;92.50;;;;;;5136594;27;20208;-75
2023/10/12 02:25:18;;;;;;;1.52;0.90;;;32.40;92.40;;;;;;5135553;27;20289;-80
2023/10/12 02:27:54;;;;;;;2.40;1.10;;;32.40;91.70;;;;;;5134329;27;21225;-74
2023/10/12 02:30:28;;;;;;;1.95;0.90;;;32.50;92.00;;;;;;5121938;27;20716;-78
2023/10/12 02:33:07;;;;;;;1.42;0.90;;;32.50;92.30;;;;;;5128522;27;20568;-75
2023/10/12 02:35:44;;;;;;;4.97;2.00;;;32.60;92.40;;;;;;5126246;27;20226;-75
2023/10/12 02:38:15;;;;;;;3.50;1.73;;;32.40;99.90;;;;;;5133842;27;20654;-77
2023/10/12 02:40:57;;;;;;;5.07;1.50;;;32.20;99.90;;;;;;5121607;27;20194;-75
2023/10/12 02:43:28;;;;;;;6.03;1.83;;;32.00;99.00;;;;;;5126610;27;20210;-77
2023/10/12 02:46:06;;;;;;;4.60;2.10;;;31.90;99.90;;;;;;5127800;27;20210;-79
2023/10/12 02:48:38;;;;;;;9.90;2.75;;;31.90;99.90;;;;;;5126108;27;20707;-74
2023/10/12 02:51:14;;;;;;;5.82;2.30;;;31.60;99.90;;;;;;5126124;27;20650;-76
2023/10/12 02:53:47;;;;;;;5.95;2.35;;;31.20;99.90;;;;;;5129050;27;20214;-75
2023/10/12 02:56:24;;;;;;;7.43;2.28;;;30.80;99.90;;;;;;5129546;27;20833;-74
2023/10/12 02:59:00;;;;;;;5.57;2.13;;;30.70;99.90;;;;;;5124854;27;20654;-74
2023/10/12 03:01:31;;;;;;;6.47;2.50;;;30.70;99.90;;;;;;5130139;27;20714;-74
2023/10/12 03:04:05;;;;;;;8.48;2.50;;;30.70;99.90;;;;;;5122161;27;20204;-74
2023/10/12 03:06:59;;;;;;;5.43;2.20;;;30.60;99.90;;;;;;5122200;27;20192;-75
2023/10/12 03:09:36;;;;;;;7.07;2.10;;;30.50;99.90;;;;;;5123073;27;20191;-77
2023/10/12 03:12:10;;;;;;;5.80;1.73;;;30.60;99.90;;;;;;5135289;27;20214;-81
2023/10/12 03:14:42;;;;;;;4.25;1.50;;;30.70;99.90;;;;;;5122856;27;20212;-81
2023/10/12 03:17:16;;;;;;;1.60;1.20;;;30.90;99.90;;;;;;5133745;27;20198;-80
2023/10/12 03:19:55;;;;;;;2.80;1.48;;;31.10;99.90;;;;;;5132745;27;20194;-74
2023/10/12 03:22:31;;;;;;;3.67;1.40;;;31.40;99.90;;;;;;5133997;27;20194;-78
2023/10/12 03:25:19;;;;;;;3.60;1.00;;;31.60;99.90;;;;;;5127239;27;20194;-78
2023/10/12 03:27:53;;;;;;;2.60;1.10;;;31.90;96.60;;;;;;5120263;27;20242;-76
2023/10/12 03:30:34;;;;;;;2.75;0.88;;;32.00;96.00;;;;;;5125195;27;20301;-74
2023/10/12 03:33:09;;;;;;;1.98;1.00;;;32.20;94.90;;;;;;5129261;27;20188;-73
2023/10/12 03:35:51;;;;;;;1.55;1.00;;;32.30;93.90;;;;;;5122153;27;20207;-74
2023/10/12 03:38:25;;;;;;;3.28;1.10;;;32.40;93.40;;;;;;5121585;27;20195;-75
2023/10/12 03:43:41;;;;;;;2.90;1.00;;;32.40;92.90;;;;;;5132001;27;20557;-73
2023/10/12 03:46:26;;;;;;;1.80;1.00;;;32.60;92.20;;;;;;5130065;27;20191;-73
2023/10/12 03:49:09;;;;;;;1.60;1.08;;;32.60;92.60;;;;;;5125997;27;20542;-73
2023/10/12 03:51:43;;;;;;;1.60;1.10;;;32.60;92.00;;;;;;5133591;27;20240;-72
2023/10/12 03:54:18;;;;;;;1.58;0.90;;;32.60;91.40;;;;;;5132653;27;20210;-75
2023/10/12 03:56:50;;;;;;;1.33;1.20;;;32.60;91.80;;;;;;5126313;27;20199;-74
2023/10/12 03:59:37;;;;;;;1.95;0.90;;;32.50;91.40;;;;;;5132201;27;20203;-74
2023/10/12 04:02:14;;;;;;;2.55;0.98;;;32.60;91.10;;;;;;5119046;27;20195;-76
2023/10/12 04:04:53;;;;;;;1.33;0.95;;;32.60;90.80;;;;;;5127257;27;20225;-80
2023/10/12 04:07:39;;;;;;;17.20;1.50;;;32.60;90.70;;;;;;5125707;27;20262;-72
2023/10/12 04:10:23;;;;;;;3.25;1.10;;;32.70;89.80;;;;;;5120684;27;20207;-76
2023/10/12 04:13:07;;;;;;;2.20;0.98;;;32.70;89.70;;;;;;5126056;27;20274;-72
2023/10/12 04:16:27;;;;;;;1.90;0.90;;;32.80;90.20;;;;;;5132544;27;20207;-77
2023/10/12 04:18:32;;;;;;;3.83;1.00;;;32.80;88.90;;;;;;5117609;27;20195;-77
2023/10/12 04:21:03;;;;;;;1.20;1.10;;;32.60;87.30;;;;;;5121159;27;20188;-72
2023/10/12 04:23:48;;;;;;;1.42;1.00;;;32.60;88.10;;;;;;5124350;27;20270;-73
2023/10/12 04:26:37;;;;;;;4.57;1.10;;;32.70;88.90;;;;;;5122437;27;20234;-72
2023/10/12 04:29:13;;;;;;;3.95;1.20;;;32.70;90.10;;;;;;5133170;27;20758;-77
2023/10/12 04:31:50;;;;;;;1.63;1.00;;;32.80;88.90;;;;;;5130235;27;20190;-82
2023/10/12 04:34:26;;;;;;;3.03;1.20;;;32.90;87.80;;;;;;5128219;27;20271;-74
2023/10/12 04:37:07;;;;;;;2.35;1.30;;;32.90;86.30;;;;;;5130707;27;20673;-72
2023/10/12 04:39:38;;;;;;;1.80;1.02;;;32.80;87.40;;;;;;5123456;27;20206;-74
2023/10/12 04:42:12;;;;;;;1.73;1.10;;;32.90;87.70;;;;;;5124909;27;21154;-72
2023/10/12 04:44:43;;;;;;;3.88;1.10;;;32.90;87.40;;;;;;5127861;27;20744;-73
2023/10/12 04:47:20;;;;;;;1.40;1.15;;;32.90;86.60;;;;;;5128780;27;20195;-73
2023/10/12 04:49:57;;;;;;;2.75;1.10;;;33.00;87.20;;;;;;5131537;27;20226;-72
2023/10/12 04:52:37;;;;;;;1.30;1.10;;;33.00;85.40;;;;;;5130023;27;20226;-73
2023/10/12 04:55:11;;;;;;;1.00;0.90;;;33.00;85.80;;;;;;5124971;27;20245;-73
2023/10/12 04:57:42;;;;;;;1.75;1.00;;;33.00;85.20;;;;;;5126493;27;20278;-77
2023/10/12 05:00:24;;;;;;;1.60;0.82;;;32.90;84.30;;;;;;5128274;27;20206;-77
2023/10/12 05:02:59;;;;;;;3.60;1.33;;;32.90;84.90;;;;;;5130851;27;20232;-73
2023/10/12 05:08:22;;;;;;;5.47;2.67;;;32.90;83.30;;;;;;5115139;27;20213;-83
2023/10/12 05:10:53;;;;;;;1.92;1.23;;;32.80;83.40;;;;;;5122962;27;20250;-72
2023/10/12 05:13:24;;;;;;;2.47;0.90;;;32.80;83.80;;;;;;5122272;27;20221;-73
2023/10/12 05:16:03;;;;;;;5.95;1.40;;;32.70;83.30;;;;;;5129068;27;20216;-73
2023/10/12 05:18:37;;;;;;;2.22;1.40;;;32.70;83.30;;;;;;5131487;27;20194;-78
2023/10/12 05:21:10;;;;;;;2.95;1.10;;;32.80;84.20;;;;;;5131638;27;20732;-73
2023/10/12 05:23:41;;;;;;;1.65;1.10;;;32.80;83.30;;;;;;5132239;27;20187;-77
2023/10/12 05:26:13;;;;;;;1.27;0.90;;;32.80;83.50;;;;;;5131897;27;20186;-73
2023/10/12 05:28:58;;;;;;;1.92;0.93;;;32.70;83.60;;;;;;5131691;27;20242;-73
2023/10/12 05:31:39;;;;;;;2.00;1.00;;;32.70;82.60;;;;;;5131423;27;20736;-77
2023/10/12 05:34:32;;;;;;;2.05;1.00;;;32.70;83.70;;;;;;5132941;27;20557;-74
2023/10/12 05:37:08;;;;;;;3.15;1.20;;;32.60;83.30;;;;;;5115565;27;20647;-75
2023/10/12 05:39:46;;;;;;;1.20;1.02;;;32.60;82.20;;;;;;5113693;28;20193;-73
2023/10/12 05:42:17;;;;;;;1.20;1.10;;;32.60;81.90;;;;;;5113331;28;20643;-74
2023/10/12 05:44:48;;;;;;;2.05;0.90;;;32.60;82.20;;;;;;5113489;28;20196;-73
2023/10/12 05:47:28;;;;;;;3.45;1.10;;;32.60;81.70;;;;;;5113642;28;20192;-74
2023/10/12 05:50:01;;;;;;;3.45;1.40;;;32.70;81.10;;;;;;5116677;28;20193;-73
2023/10/12 05:52:34;;;;;;;2.08;1.00;;;32.70;81.80;;;;;;5113160;28;20211;-73
2023/10/12 05:55:16;;;;;;;2.42;1.08;;;32.70;80.80;;;;;;5113334;28;20212;-75
2023/10/12 05:57:48;;;;;;;1.30;1.00;;;32.80;81.20;;;;;;5113491;28;20188;-74
2023/10/12 06:00:35;;;;;;;5.18;1.83;;;32.70;82.10;;;;;;5113397;28;20195;-73
2023/10/12 06:03:07;;;;;;;4.45;1.20;;;32.70;82.30;;;;;;5113134;28;20200;-78
2023/10/12 06:05:39;;;;;;;3.45;1.20;;;32.60;81.80;;;;;;5113339;28;20224;-76
2023/10/12 06:08:11;;;;;;;2.88;1.30;;;32.50;80.80;;;;;;5113288;28;20191;-75
2023/10/12 06:10:43;;;;;;;3.90;1.20;;;32.40;80.30;;;;;;5113147;28;20211;-74
2023/10/12 06:13:15;;;;;;;3.33;1.20;;;32.30;81.20;;;;;;5113246;28;20188;-73
2023/10/12 06:15:53;;;;;;;3.03;1.45;;;32.20;81.40;;;;;;5113194;28;20284;-73
2023/10/12 06:18:30;;;;;;;3.22;1.20;;;32.00;81.10;;;;;;5113125;28;20187;-72
2023/10/12 06:21:06;;;;;;;1.35;1.13;;;32.00;78.80;;;;;;5113237;28;20613;-73
2023/10/12 06:23:39;;;;;;;3.45;1.20;;;31.90;79.10;;;;;;5113183;28;20192;-76
2023/10/12 06:26:17;;;;;;;2.00;1.00;;;31.70;79.10;;;;;;5113264;28;20192;-74
2023/10/12 06:28:49;;;;;;;3.08;1.08;;;31.60;79.70;;;;;;5113017;28;20227;-78
2023/10/12 06:31:21;;;;;;;1.70;1.10;;;31.50;80.20;;;;;;5113947;28;20188;-74
2023/10/12 06:33:52;;;;;;;1.17;1.08;;;31.40;79.70;;;;;;5116674;28;20236;-73
2023/10/12 06:36:37;;;;;;;3.65;1.27;;;31.30;79.60;;;;;;5116807;27;20215;-74
2023/10/12 06:42:09;;;;;;;2.65;1.33;;;31.40;79.00;;;;;;5116783;27;20205;-73
2023/10/12 06:44:40;;;;;;;4.80;1.77;;;31.40;78.10;;;;;;5116755;28;20183;-72
2023/10/12 06:50:20;;;;;;;3.10;1.15;;;31.50;78.90;;;;;;5090577;27;20555;-73
2023/10/12 06:52:57;;;;;;;1.33;1.00;;;31.60;78.60;;;;;;5070326;28;20211;-75
2023/10/12 06:55:29;;;;;;;2.20;1.00;;;31.60;78.40;;;;;;5070914;28;20227;-73
2023/10/12 06:57:59;;;;;;;3.20;1.13;;;31.60;79.50;;;;;;5090571;28;20254;-76
2023/10/12 07:00:59;;;;;;;3.47;1.10;;;31.60;78.50;;;;;;5090652;28;20250;-72
2023/10/12 07:03:26;;;;;;;1.42;1.10;;;31.50;77.90;;;;;;5088774;28;20571;-74
2023/10/12 07:05:59;;;;;;;2.15;0.90;;;31.50;76.90;;;;;;5080806;28;20200;-75
2023/10/12 07:08:30;;;;;;;2.30;1.20;;;31.50;77.40;;;;;;5083879;28;20793;-75
2023/10/12 07:11:04;;;;;;;1.17;0.98;;;31.50;77.20;;;;;;5082542;28;20223;-73
2023/10/12 07:13:39;;;;;;;1.58;1.10;;;31.50;77.40;;;;;;5073826;28;20197;-76
2023/10/12 07:16:10;;;;;;;4.68;1.40;;;31.40;77.40;;;;;;5074168;28;20191;-73
2023/10/12 07:18:43;;;;;;;3.05;1.27;;;31.20;77.40;;;;;;5070502;28;20207;-72
2023/10/12 07:21:21;;;;;;;3.20;1.40;;;31.10;77.40;;;;;;5077854;28;20180;-73
2023/10/12 07:23:53;;;;;;;2.40;1.10;;;31.00;77.70;;;;;;5076579;28;20197;-73
2023/10/12 07:26:24;;;;;;;2.58;1.20;;;30.90;78.00;;;;;;5078795;28;20196;-77
2023/10/12 07:28:55;;;;;;;1.85;1.08;;;30.80;78.40;;;;;;5081590;28;20209;-77
2023/10/12 07:31:38;;;;;;;2.22;1.17;;;30.70;78.40;;;;;;5076374;28;20188;-74
2023/10/12 07:34:14;;;;;;;3.17;1.25;;;30.80;78.40;;;;;;5072920;28;20234;-73
2023/10/12 07:36:53;;;;;;;1.80;1.25;;;30.70;78.50;;;;;;5082225;28;20197;-73
2023/10/12 07:39:37;;;;;;;2.45;1.40;;;30.80;78.70;;;;;;5068870;28;20197;-74
2023/10/12 07:42:12;;;;;;;3.80;1.40;;;30.70;78.90;;;;;;5079981;28;20200;-83
2023/10/12 07:44:44;;;;;;;1.27;1.17;;;30.60;79.70;;;;;;5069017;28;20224;-81
2023/10/12 07:47:18;;;;;;;2.88;1.30;;;30.50;79.70;;;;;;5079847;28;20193;-80
2023/10/12 07:49:57;;;;;;;1.65;1.38;;;30.40;79.90;;;;;;5070214;28;20240;-81
2023/10/12 07:52:46;;;;;;;3.10;1.30;;;30.30;80.60;;;;;;5071283;28;20227;-86
2023/10/12 07:55:17;;;;;;;2.72;1.45;;;30.20;80.90;;;;;;5068044;28;20280;-80
2023/10/12 07:57:49;;;;;;;3.33;1.10;;;30.20;81.00;;;;;;5102641;28;20188;-80
2023/10/12 08:00:41;;;;;;;1.98;1.08;;;30.00;81.60;;;;;;5085034;28;20647;-85
2023/10/12 08:03:20;;;;;;;3.20;1.40;;;29.90;82.90;;;;;;5070856;28;20200;-85
2023/10/12 08:06:06;;;;;;;2.92;1.45;;;29.80;83.90;;;;;;5056002;28;20201;-85
2023/10/12 08:08:40;;;;;;;3.50;1.38;;;29.60;84.50;;;;;;5055948;28;20228;-84
2023/10/12 08:11:10;;;;;;;2.58;1.55;;;29.50;84.30;;;;;;5057615;28;20224;-84
2023/10/12 08:13:48;;;;;;;3.47;1.45;;;29.40;84.80;;;;;;5063988;28;20196;-83
2023/10/12 08:16:25;;;;;;;2.25;1.33;;;29.20;84.70;;;;;;5073418;28;20196;-82
2023/10/12 08:19:28;;;;;;;4.45;1.92;;;29.20;83.50;;;;;;5063541;28;20213;-81
2023/10/12 08:22:03;;;;;;;3.63;1.30;;;29.10;84.40;;;;;;5062558;28;20627;-83
2023/10/12 08:24:37;;;;;;;2.47;1.50;;;29.00;85.00;;;;;;5061150;28;20641;-83
2023/10/12 08:27:11;;;;;;;3.78;1.50;;;28.90;85.90;;;;;;5062388;28;20643;-83
2023/10/12 08:32:55;;;;;;;2.70;1.45;;;28.70;87.20;;;;;;5025930;28;20190;-84
2023/10/12 08:35:38;;;;;;;2.55;1.60;;;28.50;87.20;;;;;;5023898;28;20195;-80
2023/10/12 08:38:12;;;;;;;3.67;1.73;;;28.50;87.50;;;;;;5052296;28;20274;-82
2023/10/12 08:43:48;;;;;;;2.90;1.63;;;28.30;88.20;;;;;;5039371;28;20190;-83
2023/10/12 08:46:47;;;;;;;3.53;1.63;;;28.10;88.60;;;;;;5065916;28;20538;-83
2023/10/12 08:52:08;;;;;;;3.90;1.50;;;28.00;89.70;;;;;;5069177;28;20281;-83
2023/10/12 08:54:38;;;;;;;2.75;1.60;;;28.00;88.10;;;;;;5060412;28;20271;-83
2023/10/12 08:57:19;;;;;;;2.58;1.52;;;28.10;87.40;;;;;;5067350;28;20201;-81
2023/10/12 09:00:19;;;;;;;4.00;1.75;;;28.40;88.10;;;;;;5066494;28;20207;-86
2023/10/12 09:02:58;;;;;;;13.63;2.15;;;28.60;90.60;;;;;;5059934;28;20202;-83
2023/10/12 09:05:30;;;;;;;10.10;1.42;;;28.20;93.60;;;;;;5067764;28;20198;-77
2023/10/12 09:11:02;;;;;;;10.05;2.00;;;27.20;99.90;;;;;;5058312;28;20227;-80
2023/10/12 09:13:34;;;;;;;5.88;1.95;;;26.00;99.90;;;;;;5071529;28;20610;-74
2023/10/12 09:16:07;;;;;;;7.63;1.90;;;25.10;99.90;;;;;;5074179;28;20280;-72
2023/10/12 09:18:44;;;;;;;6.75;2.15;;;24.50;99.90;;;;;;5073583;28;20197;-73
2023/10/12 09:21:24;;;;;;;4.20;1.70;;;24.10;99.90;;;;;;5060984;28;20209;-75
2023/10/12 09:24:05;;;;;;;7.55;1.70;;;23.80;99.90;;;;;;5063978;28;20649;-73
2023/10/12 09:26:37;;;;;;;8.57;1.73;;;23.60;99.90;;;;;;5059759;28;20719;-73
2023/10/12 09:29:20;;;;;;;6.72;1.88;;;23.50;99.90;;;;;;5061461;28;20213;-75
2023/10/12 09:34:47;;;;;;;4.20;1.65;;;23.40;99.90;;;;;;5065831;28;20191;-76
2023/10/12 09:37:17;;;;;;;5.28;1.77;;;23.40;99.90;;;;;;5061808;28;20254;-83
2023/10/12 09:39:49;;;;;;;5.60;1.95;;;23.40;99.90;;;;;;5069815;28;20213;-73
2023/10/12 09:42:30;;;;;;;7.32;1.80;;;23.40;99.90;;;;;;5060215;28;20227;-74
2023/10/12 09:45:10;;;;;;;4.38;1.80;;;23.40;99.90;;;;;;5064361;28;20197;-74
2023/10/12 09:47:50;;;;;;;4.85;1.80;;;23.50;99.90;;;;;;5073501;28;20223;-74
2023/10/12 09:50:27;;;;;;;4.00;1.80;;;23.50;99.90;;;;;;5068865;28;20240;-74
2023/10/12 09:53:12;;;;;;;8.32;1.90;;;23.50;99.90;;;;;;5071204;28;20193;-74
2023/10/12 09:56:02;;;;;;;3.35;1.70;;;23.50;99.90;;;;;;5052143;28;20197;-78
2023/10/12 09:58:35;;;;;;;2.35;1.63;;;23.50;99.90;;;;;;5065826;28;20254;-76
2023/10/12 10:01:15;;;;;;;2.50;1.73;;;23.50;99.90;;;;;;5060511;28;20554;-76
2023/10/12 10:03:50;;;;;;;4.82;1.88;;;23.50;99.90;;;;;;5060424;28;20204;-74
2023/10/12 10:06:37;;;;;;;4.72;1.80;;;23.50;99.90;;;;;;5061778;28;20212;-79
2023/10/12 10:09:36;;;;;;;3.47;1.60;;;23.40;99.90;;;;;;5059925;28;20253;-77
2023/10/12 10:12:08;;;;;;;6.10;1.77;;;23.30;99.90;;;;;;5060758;28;20192;-73
2023/10/12 10:14:44;;;;;;;4.20;1.80;;;23.30;99.90;;;;;;5059873;28;20238;-75
2023/10/12 10:17:24;;;;;;;3.15;1.70;;;23.20;99.90;;;;;;5060907;28;20182;-74
2023/10/12 10:20:33;;;;;;;3.33;1.60;;;23.10;99.90;;;;;;5062872;28;20192;-83
2023/10/12 10:23:02;;;;;;;5.40;1.50;;;22.90;99.90;;;;;;5064772;28;20279;-74
2023/10/12 10:25:42;;;;;;;3.67;1.20;;;22.60;99.90;;;;;;5061874;28;20201;-80
2023/10/12 10:28:23;;;;;;;2.88;1.20;;;22.40;99.90;;;;;;5061234;28;20232;-75
2023/10/12 10:30:56;;;;;;;2.53;1.20;;;22.20;99.90;;;;;;5060982;28;20741;-82
2023/10/12 10:33:29;;;;;;;4.20;1.40;;;22.10;99.90;;;;;;5063672;28;20189;-76
2023/10/12 10:36:10;;;;;;;3.50;1.33;;;22.00;99.90;;;;;;5051393;28;20197;-83
2023/10/12 10:38:53;;;;;;;3.35;1.23;;;21.90;99.90;;;;;;5061982;28;20189;-82
2023/10/12 10:41:38;;;;;;;4.28;1.15;;;21.80;99.90;;;;;;5061040;28;20186;-84
2023/10/12 10:44:15;;;;;;;4.15;1.35;;;21.70;99.90;;;;;;5071788;28;20561;-81
2023/10/12 10:46:47;;;;;;;7.90;1.20;;;21.60;99.90;;;;;;5070425;28;20184;-78
2023/10/12 10:49:21;;;;;;;5.03;1.23;;;21.60;99.90;;;;;;5064406;28;20236;-80
2023/10/12 10:52:02;;;;;;;5.45;1.10;;;21.50;99.90;;;;;;5055022;28;20203;-80
2023/10/12 10:54:37;;;;;;;2.40;0.95;;;21.40;99.90;;;;;;5057609;28;20207;-80
2023/10/12 10:57:17;;;;;;;3.00;0.93;;;21.20;99.90;;;;;;5058870;28;20228;-79
2023/10/12 10:59:48;;;;;;;1.80;0.85;;;21.00;99.90;;;;;;5067445;28;20196;-78
2023/10/12 11:02:21;;;;;;;2.75;0.80;;;20.90;99.90;;;;;;5064388;28;20204;-80
2023/10/12 11:04:59;;;;;;;1.55;0.85;;;20.70;99.90;;;;;;5070655;28;20203;-75
2023/10/12 11:07:31;;;;;;;2.75;0.70;;;20.60;99.90;;;;;;5063372;28;20562;-87
2023/10/12 11:10:09;;;;;;;2.28;0.70;;;20.40;99.90;;;;;;5067628;28;20229;-77
2023/10/12 11:12:38;;;;;;;2.67;0.57;;;20.30;99.90;;;;;;5058803;28;20565;-77
2023/10/12 11:15:11;;;;;;;1.98;0.57;;;20.20;99.90;;;;;;5067798;28;20280;-75
2023/10/12 11:17:55;;;;;;;1.65;0.50;;;20.00;99.90;;;;;;5062662;28;20210;-77
2023/10/12 11:20:49;;;;;;;2.55;0.57;;;20.00;99.90;;;;;;5071073;28;20210;-74
2023/10/12 11:23:21;;;;;;;0.93;0.50;;;20.00;99.90;;;;;;5061365;28;20553;-78
2023/10/12 11:25:55;;;;;;;1.05;0.55;;;19.90;99.90;;;;;;5059075;28;20206;-75
2023/10/12 11:28:26;;;;;;;1.13;0.40;;;19.80;99.90;;;;;;5069664;28;20279;-79
2023/10/12 11:31:01;;;;;;;1.77;0.50;;;19.90;99.90;;;;;;5073633;28;20324;-75
2023/10/12 11:33:33;;;;;;;0.65;0.50;;;19.60;99.90;;;;;;5071667;28;20193;-78
2023/10/12 11:36:06;;;;;;;1.55;0.47;;;19.60;99.90;;;;;;5074385;28;20660;-75
2023/10/12 11:38:37;;;;;;;0.43;0.30;;;19.50;99.90;;;;;;5070056;28;20193;-77
2023/10/12 11:41:17;;;;;;;0.63;0.35;;;19.40;99.90;;;;;;5062200;28;20233;-78
2023/10/12 11:43:53;;;;;;;3.22;0.40;;;19.30;99.90;;;;;;5076052;28;20657;-83
2023/10/12 11:46:25;;;;;;;0.95;0.40;;;19.20;99.90;;;;;;5065328;28;20284;-81
2023/10/12 11:49:08;;;;;;;0.40;0.40;;;19.10;99.90;;;;;;5071236;28;20232;-79
2023/10/12 11:51:50;;;;;;;1.23;0.70;;;19.00;99.90;;;;;;5064476;28;20194;-82
2023/10/12 11:54:32;;;;;;;1.27;0.50;;;18.90;99.90;;;;;;5063600;28;20203;-76
2023/10/12 11:57:04;;;;;;;0.65;0.40;;;18.80;99.90;;;;;;5064282;28;20267;-79
2023/10/12 11:59:35;;;;;;;1.23;0.40;;;18.70;99.90;;;;;;5073775;28;20201;-83
2023/10/12 12:02:09;;;;;;;1.10;0.60;;;18.70;99.90;;;;;;5063245;28;20202;-81
2023/10/12 12:04:41;;;;;;;1.35;0.40;;;18.70;99.90;;;;;;5066799;28;20193;-79
2023/10/12 12:07:13;;;;;;;1.08;0.40;;;18.60;99.90;;;;;;5062854;28;20200;-81
2023/10/12 12:09:48;;;;;;;1.10;0.43;;;18.60;99.90;;;;;;5056506;28;20237;-83
2023/10/12 12:12:19;;;;;;;0.85;0.50;;;18.60;99.90;;;;;;5052954;28;20208;-79
2023/10/12 12:14:49;;;;;;;0.70;0.40;;;18.60;99.90;;;;;;5060483;28;20312;-81
2023/10/12 12:17:20;;;;;;;0.40;0.35;;;18.60;99.90;;;;;;5054752;28;20198;-77
2023/10/12 12:19:51;;;;;;;0.90;0.40;;;18.60;99.90;;;;;;5062846;28;20201;-81
2023/10/12 12:22:25;;;;;;;0.55;0.43;;;18.60;99.90;;;;;;5056091;28;20570;-74
2023/10/12 12:24:57;;;;;;;1.30;0.45;;;18.60;99.90;;;;;;5083049;28;20197;-77
2023/10/12 12:27:39;;;;;;;1.17;0.50;;;18.50;99.90;;;;;;5058684;28;20276;-82
2023/10/12 12:30:23;;;;;;;0.50;0.47;;;18.50;99.90;;;;;;5053084;28;20209;-84
2023/10/12 12:33:00;;;;;;;0.65;0.40;;;18.40;99.90;;;;;;5057472;28;20193;-81
2023/10/12 12:35:32;;;;;;;1.17;0.47;;;18.40;99.90;;;;;;5063024;28;20221;-80
2023/10/12 12:38:18;;;;;;;1.05;0.60;;;18.40;99.90;;;;;;5058244;28;20197;-74
2023/10/12 12:40:48;;;;;;;0.98;0.40;;;18.30;99.90;;;;;;5069173;28;20203;-80
2023/10/12 12:43:20;;;;;;;1.00;0.50;;;18.20;99.90;;;;;;5060174;28;20724;-83
2023/10/12 12:45:52;;;;;;;0.50;0.40;;;18.20;99.90;;;;;;5069477;28;20238;-86
2023/10/12 12:48:23;;;;;;;0.45;0.32;;;18.20;99.90;;;;;;5060195;28;20278;-82
2023/10/12 12:50:54;;;;;;;0.73;0.43;;;18.10;99.90;;;;;;5060502;28;20693;-80
2023/10/12 12:53:28;;;;;;;1.83;0.47;;;18.00;99.90;;;;;;5067793;28;20197;-74
2023/10/12 12:56:01;;;;;;;0.82;0.40;;;17.70;99.90;;;;;;5063808;28;20664;-76
2023/10/12 12:58:36;;;;;;;2.28;0.52;;;17.40;99.90;;;;;;5062875;28;20198;-75
2023/10/12 13:01:10;;;;;;;1.75;0.65;;;17.10;99.90;;;;;;5062972;28;20193;-73
2023/10/12 13:03:41;;;;;;;1.88;0.60;;;16.60;99.90;;;;;;5067297;28;20684;-75
2023/10/12 13:06:12;;;;;;;1.00;0.43;;;16.20;99.90;;;;;;5068529;28;20558;-73
2023/10/12 13:08:45;;;;;;;5.15;0.75;;;16.00;99.90;;;;;;5073268;28;20247;-77
2023/10/12 13:11:20;;;;;;;1.20;0.60;;;15.80;99.90;;;;;;5060425;28;20220;-74
2023/10/12 13:13:51;;;;;;;1.90;0.50;;;15.80;99.90;;;;;;5061732;28;20191;-73
2023/10/12 13:16:22;;;;;;;2.28;0.68;;;15.70;99.90;;;;;;5074826;28;20289;-74
2023/10/12 13:18:53;;;;;;;1.70;0.70;;;15.60;99.90;;;;;;5072833;28;20199;-73
2023/10/12 13:21:24;;;;;;;1.13;0.70;;;15.50;99.90;;;;;;5057168;28;20653;-75
2023/10/12 13:23:56;;;;;;;1.27;0.40;;;15.40;99.90;;;;;;5062140;28;20197;-73
2023/10/12 13:26:28;;;;;;;1.35;0.55;;;15.40;99.90;;;;;;5073571;28;20231;-74
2023/10/12 13:29:01;;;;;;;1.55;0.60;;;15.50;99.90;;;;;;5074435;28;20265;-73
2023/10/12 13:31:32;;;;;;;2.00;0.70;;;15.60;99.90;;;;;;5055158;28;20304;-74
2023/10/12 13:34:05;;;;;;;1.10;0.60;;;15.60;99.90;;;;;;5062147;28;20275;-76
2023/10/12 13:36:36;;;;;;;0.50;0.50;;;15.60;99.90;;;;;;5072667;28;20200;-76
2023/10/12 13:39:11;;;;;;;2.78;0.75;;;15.60;99.90;;;;;;5073879;28;20189;-76
2023/10/12 13:41:41;;;;;;;2.47;0.93;;;15.60;99.90;;;;;;5060663;28;20193;-77
2023/10/12 13:44:13;;;;;;;1.17;0.55;;;15.60;99.90;;;;;;5062222;28;20193;-76
2023/10/12 13:46:46;;;;;;;2.08;0.70;;;15.60;99.90;;;;;;5074032;28;20193;-76
2023/10/12 13:49:20;;;;;;;1.08;0.70;;;15.60;99.90;;;;;;5067050;28;20709;-77
2023/10/12 13:51:53;;;;;;;0.77;0.65;;;15.70;99.90;;;;;;5053412;28;20221;-76
2023/10/12 13:54:28;;;;;;;1.60;0.60;;;15.60;99.90;;;;;;5058078;28;20205;-73
2023/10/12 13:57:02;;;;;;;3.08;0.70;;;15.50;99.90;;;;;;5053989;28;20193;-76